Time;durP1;ratioP1;P1;durP2;ratioP2;P2;SDS_P1;SDS_P2;PMS_P1;PMS_P2;Temp;Humidity;BMP_temperature;BMP_pressure;BME280_temperature;BME280_humidity;BME280_pressure;Samples;Min_cycle;Max_cycle;Signal;HPM_P1;HPM_P2
2023/05/12 00:02:22;;;;;;;36.83;16.63;;;11.30;99.90;;;;;;4949610;28;20053;-60
2023/05/12 00:04:48;;;;;;;31.63;16.65;;;11.30;99.90;;;;;;4966893;28;20042;-59
2023/05/12 00:07:14;;;;;;;28.10;15.48;;;11.30;99.90;;;;;;4947293;28;20086;-60
2023/05/12 00:09:40;;;;;;;30.65;15.77;;;11.30;99.90;;;;;;4952103;28;20050;-59
2023/05/12 00:12:07;;;;;;;32.25;15.80;;;11.30;99.90;;;;;;4954759;28;20055;-59
2023/05/12 00:14:35;;;;;;;33.88;15.45;;;11.30;99.90;;;;;;4969191;28;20046;-60
2023/05/12 00:17:05;;;;;;;30.40;15.15;;;11.30;99.90;;;;;;4972210;28;20072;-60
2023/05/12 00:19:32;;;;;;;27.00;14.30;;;11.30;99.90;;;;;;4971839;28;20540;-59
2023/05/12 00:21:58;;;;;;;25.35;15.18;;;11.30;99.90;;;;;;4971052;28;20106;-60
2023/05/12 00:24:24;;;;;;;30.42;15.50;;;11.30;99.90;;;;;;4956187;28;20556;-60
2023/05/12 00:26:50;;;;;;;30.92;15.23;;;11.30;99.90;;;;;;4970132;28;20160;-60
2023/05/12 00:29:16;;;;;;;34.45;15.68;;;11.40;99.90;;;;;;4974959;28;20180;-59
2023/05/12 00:31:41;;;;;;;34.95;15.27;;;11.40;99.90;;;;;;4953980;28;20372;-60
2023/05/12 00:34:07;;;;;;;34.50;14.82;;;11.40;99.90;;;;;;4946640;28;20171;-60
2023/05/12 00:36:33;;;;;;;35.75;16.33;;;11.40;99.90;;;;;;4973887;28;20039;-59
2023/05/12 00:38:59;;;;;;;35.47;16.88;;;11.40;99.90;;;;;;4975729;28;20398;-59
2023/05/12 00:41:24;;;;;;;30.42;15.95;;;11.40;99.90;;;;;;4974289;28;20042;-59
2023/05/12 00:43:51;;;;;;;30.13;16.75;;;11.40;99.90;;;;;;4956253;28;20042;-59
2023/05/12 00:46:17;;;;;;;32.85;16.30;;;11.40;99.90;;;;;;4954907;28;20050;-59
2023/05/12 00:48:44;;;;;;;31.35;16.77;;;11.40;99.90;;;;;;4956350;28;20062;-60
2023/05/12 00:51:12;;;;;;;43.03;18.80;;;11.40;99.90;;;;;;4972072;28;20042;-60
2023/05/12 00:53:38;;;;;;;40.20;19.60;;;11.40;99.90;;;;;;4951176;28;20057;-59
2023/05/12 00:56:04;;;;;;;43.33;19.77;;;11.40;99.90;;;;;;4973133;28;20030;-60
2023/05/12 00:58:30;;;;;;;39.17;19.38;;;11.40;99.90;;;;;;4927989;28;1156101;-60
2023/05/12 01:00:56;;;;;;;38.15;20.25;;;11.40;99.90;;;;;;4970698;28;20050;-60
2023/05/12 01:03:22;;;;;;;46.97;20.92;;;11.40;99.90;;;;;;4971689;28;20388;-60
2023/05/12 01:06:12;;;;;;;44.42;21.35;;;11.40;99.90;;;;;;4970603;28;20643;-60
2023/05/12 01:08:40;;;;;;;45.45;21.63;;;11.50;99.90;;;;;;4955182;28;20119;-60
2023/05/12 01:11:06;;;;;;;44.53;22.27;;;11.50;99.90;;;;;;4964454;28;20105;-59
2023/05/12 01:13:31;;;;;;;41.75;21.10;;;11.50;99.90;;;;;;4954582;28;20058;-60
2023/05/12 01:15:59;;;;;;;50.53;20.88;;;11.50;99.90;;;;;;4950042;28;20157;-59
2023/05/12 01:18:27;;;;;;;39.13;19.48;;;11.50;99.90;;;;;;4959696;28;20050;-59
2023/05/12 01:20:55;;;;;;;41.03;19.92;;;11.50;99.90;;;;;;4957099;28;20101;-59
2023/05/12 01:23:26;;;;;;;40.08;19.67;;;11.50;99.90;;;;;;4955879;28;20101;-60
2023/05/12 01:25:54;;;;;;;41.35;18.88;;;11.50;99.90;;;;;;4975943;28;20515;-59
2023/05/12 01:28:21;;;;;;;37.45;17.90;;;11.50;99.90;;;;;;4954745;28;20401;-59
2023/05/12 01:30:47;;;;;;;38.65;17.95;;;11.50;99.90;;;;;;4956551;28;20077;-60
2023/05/12 01:33:13;;;;;;;37.17;17.05;;;11.60;99.90;;;;;;4970634;28;20046;-60
2023/05/12 01:35:39;;;;;;;39.83;17.73;;;11.60;99.90;;;;;;4945190;28;20046;-59
2023/05/12 01:38:05;;;;;;;34.97;18.80;;;11.60;99.90;;;;;;4974671;28;20049;-59
2023/05/12 01:40:30;;;;;;;37.10;19.13;;;11.60;99.90;;;;;;4956550;28;20039;-59
2023/05/12 01:42:56;;;;;;;40.25;18.65;;;11.60;99.90;;;;;;4974996;28;20497;-60
2023/05/12 01:45:22;;;;;;;43.80;20.48;;;11.60;99.90;;;;;;4972036;28;20038;-60
2023/05/12 01:47:48;;;;;;;37.97;20.45;;;11.60;99.90;;;;;;4942548;28;20109;-59
2023/05/12 01:50:13;;;;;;;41.17;20.92;;;11.60;99.90;;;;;;4962367;28;20125;-60
2023/05/12 01:52:39;;;;;;;47.22;21.55;;;11.70;99.90;;;;;;4958598;28;20149;-60
2023/05/12 01:55:06;;;;;;;46.80;22.85;;;11.60;99.90;;;;;;4956174;28;20581;-60
2023/05/12 01:57:31;;;;;;;46.95;21.45;;;11.60;99.90;;;;;;4959313;28;20133;-59
2023/05/12 01:59:57;;;;;;;47.00;22.65;;;11.70;99.90;;;;;;4958642;28;20133;-60
2023/05/12 02:02:23;;;;;;;47.58;24.10;;;11.70;99.90;;;;;;4955228;28;20490;-59
2023/05/12 02:04:49;;;;;;;53.30;23.48;;;11.60;99.90;;;;;;4952642;28;20405;-60
2023/05/12 02:07:14;;;;;;;46.78;23.08;;;11.70;99.90;;;;;;4954302;28;20078;-60
2023/05/12 02:09:40;;;;;;;49.75;24.52;;;11.70;99.90;;;;;;4956404;28;20448;-59
2023/05/12 02:12:06;;;;;;;49.15;23.65;;;11.70;99.90;;;;;;4954968;28;20039;-59
2023/05/12 02:14:33;;;;;;;51.53;23.85;;;11.70;99.90;;;;;;4953788;28;20492;-60
2023/05/12 02:16:58;;;;;;;50.45;23.10;;;11.70;99.90;;;;;;4949306;28;20134;-59
2023/05/12 02:19:24;;;;;;;53.47;23.10;;;11.70;99.90;;;;;;4956260;28;20170;-59
2023/05/12 02:21:50;;;;;;;45.28;22.25;;;11.70;99.90;;;;;;4955241;28;20047;-60
2023/05/12 02:24:16;;;;;;;48.17;22.88;;;11.70;99.90;;;;;;4957936;28;20051;-60
2023/05/12 02:26:42;;;;;;;53.20;23.80;;;11.60;99.90;;;;;;4955908;28;20047;-59
2023/05/12 02:29:07;;;;;;;46.70;22.63;;;11.70;99.90;;;;;;4957015;28;20051;-59
2023/05/12 02:31:33;;;;;;;53.42;23.58;;;11.60;99.90;;;;;;4946257;28;20109;-60
2023/05/12 02:34:00;;;;;;;53.97;22.20;;;11.70;99.90;;;;;;4958015;28;20046;-59
2023/05/12 02:36:25;;;;;;;47.38;22.23;;;11.70;99.90;;;;;;4964494;28;20055;-60
2023/05/12 02:38:51;;;;;;;48.55;22.38;;;11.70;99.90;;;;;;4952793;28;20046;-60
2023/05/12 02:41:17;;;;;;;51.75;22.27;;;11.70;99.90;;;;;;4956979;28;20050;-60
2023/05/12 02:43:43;;;;;;;52.08;22.40;;;11.70;99.90;;;;;;4953675;28;20047;-59
2023/05/12 02:46:08;;;;;;;50.15;22.67;;;11.70;99.90;;;;;;4955687;28;20050;-60
2023/05/12 02:48:34;;;;;;;52.38;22.52;;;11.70;99.90;;;;;;4957689;28;20137;-59
2023/05/12 02:51:00;;;;;;;47.60;21.38;;;11.70;99.90;;;;;;4951075;28;20625;-59
2023/05/12 02:53:26;;;;;;;55.00;22.25;;;11.70;99.90;;;;;;4948265;28;20058;-59
2023/05/12 02:55:52;;;;;;;43.03;21.67;;;11.60;99.90;;;;;;4956968;28;20521;-59
2023/05/12 02:58:18;;;;;;;48.63;21.50;;;11.70;99.90;;;;;;4962903;28;20733;-60
2023/05/12 03:00:44;;;;;;;55.70;22.10;;;11.60;99.90;;;;;;4957867;28;20121;-59
2023/05/12 03:03:09;;;;;;;48.63;22.00;;;11.70;99.90;;;;;;4975249;28;20042;-59
2023/05/12 03:05:35;;;;;;;53.70;22.60;;;11.60;99.90;;;;;;4959589;28;20042;-59
2023/05/12 03:08:01;;;;;;;57.05;22.83;;;11.60;99.90;;;;;;4975452;28;20393;-59
2023/05/12 03:10:27;;;;;;;50.55;21.85;;;11.60;99.90;;;;;;4957850;28;20129;-59
2023/05/12 03:12:52;;;;;;;47.50;20.98;;;11.60;99.90;;;;;;4949187;28;20049;-58
2023/05/12 03:15:18;;;;;;;60.17;23.52;;;11.60;99.90;;;;;;4956748;28;20074;-59
2023/05/12 03:17:44;;;;;;;48.90;21.83;;;11.60;99.90;;;;;;4972523;28;20126;-59
2023/05/12 03:20:11;;;;;;;52.05;22.40;;;11.60;99.90;;;;;;4966264;28;20106;-60
2023/05/12 03:22:37;;;;;;;48.70;21.08;;;11.60;99.90;;;;;;4952748;28;20046;-60
2023/05/12 03:25:04;;;;;;;46.35;22.45;;;11.60;99.90;;;;;;4973749;28;20042;-60
2023/05/12 03:27:31;;;;;;;45.88;21.08;;;11.60;99.90;;;;;;4976584;28;20039;-60
2023/05/12 03:29:59;;;;;;;46.67;21.45;;;11.60;99.90;;;;;;4972749;28;20404;-60
2023/05/12 03:32:26;;;;;;;46.25;21.80;;;11.60;99.90;;;;;;4971518;28;20050;-60
2023/05/12 03:34:52;;;;;;;48.67;21.15;;;11.60;99.90;;;;;;4971772;28;21039;-59
2023/05/12 03:37:17;;;;;;;50.53;22.20;;;11.60;99.90;;;;;;4959431;28;20043;-59
2023/05/12 03:39:43;;;;;;;44.95;20.40;;;11.60;99.90;;;;;;4975399;28;20055;-59
2023/05/12 03:42:09;;;;;;;53.08;22.17;;;11.60;99.90;;;;;;4959867;28;20038;-59
2023/05/12 03:44:34;;;;;;;48.05;21.98;;;11.60;99.90;;;;;;4973009;28;20121;-59
2023/05/12 03:47:00;;;;;;;49.28;21.33;;;11.60;99.90;;;;;;4956869;28;20050;-58
2023/05/12 03:49:26;;;;;;;54.08;21.33;;;11.60;99.90;;;;;;4929538;28;20051;-60
2023/05/12 03:51:52;;;;;;;42.88;20.42;;;11.60;99.90;;;;;;4954811;28;20042;-60
2023/05/12 03:54:17;;;;;;;42.97;20.30;;;11.60;99.90;;;;;;4956119;28;20094;-59
2023/05/12 03:56:43;;;;;;;46.17;20.98;;;11.60;99.90;;;;;;4974420;28;20071;-59
2023/05/12 03:59:10;;;;;;;44.53;20.52;;;11.60;99.90;;;;;;4977260;28;20050;-60
2023/05/12 04:01:36;;;;;;;48.55;21.25;;;11.60;99.90;;;;;;4974776;28;20060;-60
2023/05/12 04:04:02;;;;;;;46.50;20.92;;;11.60;99.90;;;;;;4977705;28;20051;-59
2023/05/12 04:06:28;;;;;;;47.38;22.05;;;11.50;99.90;;;;;;4977044;28;20155;-60
2023/05/12 04:08:53;;;;;;;45.28;21.15;;;11.60;99.90;;;;;;4959275;28;20058;-59
2023/05/12 04:11:19;;;;;;;46.55;21.15;;;11.50;99.90;;;;;;4956343;28;20453;-59
2023/05/12 04:13:45;;;;;;;51.13;22.00;;;11.60;99.90;;;;;;4974707;28;20043;-59
2023/05/12 04:16:11;;;;;;;50.97;22.25;;;11.60;99.90;;;;;;4975305;28;20042;-59
2023/05/12 04:18:36;;;;;;;49.95;22.38;;;11.60;99.90;;;;;;4957694;28;20145;-59
2023/05/12 04:21:02;;;;;;;52.22;22.13;;;11.60;99.90;;;;;;4975278;28;20113;-60
2023/05/12 04:23:28;;;;;;;45.63;21.23;;;11.60;99.90;;;;;;4976538;28;20053;-60
2023/05/12 04:25:55;;;;;;;47.90;21.35;;;11.60;99.90;;;;;;4975906;28;20119;-59
2023/05/12 04:28:21;;;;;;;48.78;21.50;;;11.70;99.90;;;;;;4975089;28;20046;-60
2023/05/12 04:30:46;;;;;;;50.00;21.90;;;11.70;99.90;;;;;;4975574;28;20058;-59
2023/05/12 04:33:12;;;;;;;48.83;22.10;;;11.70;99.90;;;;;;4979720;28;20038;-59
2023/05/12 04:35:38;;;;;;;43.85;21.90;;;11.70;99.90;;;;;;4975930;28;20141;-59
2023/05/12 04:38:04;;;;;;;48.80;21.90;;;11.70;99.90;;;;;;4950097;28;20049;-60
2023/05/12 04:40:30;;;;;;;48.05;22.27;;;11.70;99.90;;;;;;4958270;28;20435;-59
2023/05/12 04:42:55;;;;;;;48.55;21.77;;;11.70;99.90;;;;;;4960579;28;20097;-59
2023/05/12 04:45:21;;;;;;;46.45;22.30;;;11.80;99.90;;;;;;4977650;28;20442;-59
2023/05/12 04:47:47;;;;;;;49.30;22.55;;;11.80;99.90;;;;;;4977363;28;20038;-59
2023/05/12 04:50:13;;;;;;;48.60;22.17;;;11.80;99.90;;;;;;4975893;28;20093;-59
2023/05/12 04:52:39;;;;;;;47.30;22.27;;;11.80;99.90;;;;;;4976771;28;20092;-59
2023/05/12 04:55:06;;;;;;;47.83;22.63;;;11.80;99.90;;;;;;4978567;28;20146;-59
2023/05/12 04:57:32;;;;;;;49.47;21.27;;;11.90;99.90;;;;;;4970633;28;20122;-59
2023/05/12 04:59:58;;;;;;;48.10;22.33;;;11.90;99.90;;;;;;4968719;28;20074;-59
2023/05/12 05:02:25;;;;;;;57.20;23.83;;;11.90;99.90;;;;;;4960664;28;20054;-59
2023/05/12 05:04:51;;;;;;;53.25;23.10;;;12.00;99.90;;;;;;4973818;28;20058;-59
2023/05/12 05:07:17;;;;;;;45.75;22.70;;;12.00;99.90;;;;;;4976242;28;20054;-60
2023/05/12 05:09:43;;;;;;;49.22;22.90;;;12.00;99.90;;;;;;4975196;28;20085;-59
2023/05/12 05:12:08;;;;;;;50.80;23.35;;;12.10;99.90;;;;;;4973206;28;20424;-60
2023/05/12 05:14:34;;;;;;;48.15;23.45;;;12.10;99.90;;;;;;4967255;28;20091;-60
2023/05/12 05:17:00;;;;;;;52.25;23.75;;;12.10;99.90;;;;;;4968035;28;20053;-60
2023/05/12 05:19:26;;;;;;;50.60;23.30;;;12.20;99.90;;;;;;4938906;28;20488;-58
2023/05/12 05:21:52;;;;;;;43.15;22.30;;;12.20;99.90;;;;;;4957256;28;20050;-59
2023/05/12 05:24:19;;;;;;;41.90;22.40;;;12.20;99.90;;;;;;4948846;28;20042;-60
2023/05/12 05:26:44;;;;;;;50.30;23.02;;;12.20;99.90;;;;;;4970186;28;20053;-60
2023/05/12 05:29:10;;;;;;;52.47;24.73;;;12.20;99.90;;;;;;4950513;28;20042;-59
2023/05/12 05:31:36;;;;;;;55.67;25.30;;;12.30;99.90;;;;;;4954471;28;20085;-60
2023/05/12 05:34:02;;;;;;;49.80;24.33;;;12.30;99.90;;;;;;4963400;28;20445;-59
2023/05/12 05:36:28;;;;;;;49.10;23.80;;;12.30;99.90;;;;;;4976620;28;20117;-60
2023/05/12 05:38:54;;;;;;;49.65;24.65;;;12.40;99.90;;;;;;4971497;28;20112;-59
2023/05/12 05:41:21;;;;;;;51.35;24.40;;;12.40;99.90;;;;;;4969793;28;20388;-59
2023/05/12 05:43:47;;;;;;;51.88;26.52;;;12.40;99.90;;;;;;4969617;28;20055;-60
2023/05/12 05:46:13;;;;;;;51.95;24.42;;;12.40;99.90;;;;;;4957229;28;20093;-60
2023/05/12 05:48:38;;;;;;;46.47;23.58;;;12.50;99.90;;;;;;4967889;28;20074;-59
2023/05/12 05:51:05;;;;;;;50.10;24.30;;;12.50;99.90;;;;;;4957511;28;20073;-59
2023/05/12 05:53:31;;;;;;;50.33;24.60;;;12.50;99.90;;;;;;4972372;28;20070;-59
2023/05/12 05:55:56;;;;;;;53.17;25.65;;;12.60;99.90;;;;;;4957050;28;20046;-59
2023/05/12 05:58:22;;;;;;;45.83;25.63;;;12.60;99.90;;;;;;4969277;28;20112;-58
2023/05/12 06:00:48;;;;;;;47.20;25.88;;;12.60;99.90;;;;;;4958834;28;20400;-59
2023/05/12 06:03:14;;;;;;;48.47;25.38;;;12.60;99.90;;;;;;4953084;28;20042;-59
2023/05/12 06:05:41;;;;;;;47.50;24.38;;;12.60;99.90;;;;;;4966240;28;20480;-59
2023/05/12 06:08:09;;;;;;;49.72;25.13;;;12.70;99.90;;;;;;4967393;28;20035;-60
2023/05/12 06:10:35;;;;;;;43.58;23.70;;;12.70;99.90;;;;;;4945433;28;20180;-59
2023/05/12 06:13:01;;;;;;;52.05;25.60;;;12.70;99.90;;;;;;4951170;28;20105;-60
2023/05/12 06:15:27;;;;;;;53.30;26.30;;;12.80;99.90;;;;;;4945048;28;20130;-59
2023/05/12 06:17:53;;;;;;;48.60;24.50;;;12.80;99.90;;;;;;4975124;28;20042;-60
2023/05/12 06:20:19;;;;;;;48.63;25.67;;;12.90;99.90;;;;;;4960930;28;20061;-59
2023/05/12 06:22:45;;;;;;;53.15;25.48;;;12.90;99.90;;;;;;4976255;28;20050;-59
2023/05/12 06:25:11;;;;;;;46.90;25.60;;;12.90;99.90;;;;;;4978312;28;20112;-58
2023/05/12 06:27:37;;;;;;;47.65;25.70;;;13.00;99.90;;;;;;4979081;28;20046;-59
2023/05/12 06:30:03;;;;;;;51.85;27.50;;;13.00;99.90;;;;;;4947564;28;20074;-59
2023/05/12 06:32:29;;;;;;;54.42;27.25;;;13.10;99.90;;;;;;4974616;28;20042;-58
2023/05/12 06:34:55;;;;;;;54.15;28.23;;;13.20;99.90;;;;;;4957497;28;20549;-60
2023/05/12 06:37:20;;;;;;;53.50;29.02;;;13.20;99.90;;;;;;4964151;28;20168;-59
2023/05/12 06:39:46;;;;;;;58.42;29.65;;;13.30;99.90;;;;;;4967798;28;20046;-59
2023/05/12 06:42:12;;;;;;;56.40;28.92;;;13.30;99.90;;;;;;4967984;28;20054;-60
2023/05/12 06:44:38;;;;;;;49.33;29.02;;;13.40;99.90;;;;;;4950221;28;20045;-59
2023/05/12 06:47:04;;;;;;;56.85;30.70;;;13.50;99.90;;;;;;4968409;28;20488;-59
2023/05/12 06:49:30;;;;;;;56.65;30.63;;;13.50;99.90;;;;;;4973016;28;20098;-59
2023/05/12 06:51:56;;;;;;;59.88;32.22;;;13.60;99.90;;;;;;4954232;28;20958;-59
2023/05/12 06:54:21;;;;;;;52.22;31.15;;;13.70;99.90;;;;;;4970975;28;20092;-59
2023/05/12 06:56:47;;;;;;;59.45;32.58;;;13.70;99.90;;;;;;4966884;28;20101;-59
2023/05/12 06:59:13;;;;;;;51.78;31.77;;;13.80;99.90;;;;;;4948071;28;20117;-60
2023/05/12 07:01:40;;;;;;;56.03;32.47;;;13.90;99.90;;;;;;4940716;28;20118;-60
2023/05/12 07:04:06;;;;;;;58.90;33.80;;;14.00;99.90;;;;;;4947962;28;20043;-59
2023/05/12 07:06:33;;;;;;;53.88;33.75;;;14.10;99.90;;;;;;4948415;28;20042;-59
2023/05/12 07:08:59;;;;;;;56.75;34.15;;;14.10;99.90;;;;;;4942920;28;20565;-59
2023/05/12 07:11:25;;;;;;;58.10;33.88;;;14.20;99.90;;;;;;4948578;28;20041;-59
2023/05/12 07:13:51;;;;;;;60.97;35.25;;;14.30;99.90;;;;;;4946772;28;20079;-59
2023/05/12 07:16:18;;;;;;;59.67;36.13;;;14.30;99.90;;;;;;4949531;28;20131;-59
2023/05/12 07:18:44;;;;;;;60.63;36.35;;;14.40;99.90;;;;;;4948207;28;20402;-59
2023/05/12 07:21:10;;;;;;;60.47;36.90;;;14.40;99.90;;;;;;4901516;28;20058;-60
2023/05/12 07:23:36;;;;;;;60.03;36.50;;;14.50;99.90;;;;;;4935880;28;20072;-59
2023/05/12 07:26:04;;;;;;;64.30;37.60;;;14.60;99.90;;;;;;4948898;28;20050;-60
2023/05/12 07:28:31;;;;;;;66.13;39.17;;;14.70;99.90;;;;;;4952044;28;20642;-60
2023/05/12 07:30:59;;;;;;;63.30;37.88;;;14.70;99.90;;;;;;4943535;28;20482;-59
2023/05/12 07:33:25;;;;;;;60.80;38.35;;;14.80;99.90;;;;;;4949876;28;20046;-60
2023/05/12 07:35:51;;;;;;;59.45;37.63;;;14.90;99.90;;;;;;4946400;28;20129;-60
2023/05/12 07:38:17;;;;;;;64.40;38.15;;;15.00;99.90;;;;;;4948926;28;20054;-59
2023/05/12 07:40:43;;;;;;;57.60;37.13;;;15.10;99.90;;;;;;4930181;28;20043;-60
2023/05/12 07:43:09;;;;;;;58.17;38.00;;;15.10;99.90;;;;;;4952074;28;20051;-59
2023/05/12 07:45:35;;;;;;;58.28;38.60;;;15.20;99.90;;;;;;4951282;28;20050;-60
2023/05/12 07:48:01;;;;;;;61.17;38.05;;;15.30;99.90;;;;;;4944441;28;20047;-59
2023/05/12 07:50:27;;;;;;;56.15;37.38;;;15.40;99.90;;;;;;4942975;28;20105;-60
2023/05/12 07:52:53;;;;;;;59.78;37.83;;;15.50;99.90;;;;;;4949345;28;20125;-59
2023/05/12 07:55:21;;;;;;;55.70;39.25;;;15.60;99.90;;;;;;4950808;28;20156;-60
2023/05/12 07:57:48;;;;;;;53.42;36.40;;;15.70;99.90;;;;;;4950861;28;20059;-59
2023/05/12 08:00:15;;;;;;;58.67;38.38;;;15.80;99.90;;;;;;4963936;28;20069;-59
2023/05/12 08:02:41;;;;;;;55.08;37.78;;;15.90;99.90;;;;;;4967860;28;20058;-59
2023/05/12 08:05:10;;;;;;;60.15;38.70;;;16.00;99.90;;;;;;4952578;28;20132;-59
2023/05/12 08:07:37;;;;;;;55.90;38.13;;;16.00;99.90;;;;;;4972193;28;20077;-62
2023/05/12 08:10:06;;;;;;;56.70;37.70;;;16.10;99.90;;;;;;4970541;28;20049;-60
2023/05/12 08:12:32;;;;;;;51.03;35.83;;;16.10;99.90;;;;;;4952575;28;20078;-59
2023/05/12 08:14:58;;;;;;;53.30;36.55;;;16.20;99.90;;;;;;4932414;28;20046;-60
2023/05/12 08:17:24;;;;;;;52.10;37.15;;;16.20;99.90;;;;;;4956257;28;20073;-59
2023/05/12 08:19:50;;;;;;;53.33;35.80;;;16.30;99.90;;;;;;4951481;28;20046;-60
2023/05/12 08:22:16;;;;;;;56.42;35.53;;;16.30;99.90;;;;;;4944362;28;20061;-59
2023/05/12 08:24:42;;;;;;;47.67;35.38;;;16.40;99.90;;;;;;4943139;28;20065;-59
2023/05/12 08:27:08;;;;;;;46.60;34.33;;;16.50;99.90;;;;;;4944112;28;20572;-59
2023/05/12 08:29:34;;;;;;;47.33;35.67;;;16.50;99.90;;;;;;4960848;28;20042;-60
2023/05/12 08:32:01;;;;;;;49.13;35.58;;;16.50;99.90;;;;;;4951178;28;20131;-58
2023/05/12 08:34:26;;;;;;;44.75;33.75;;;16.60;99.90;;;;;;4965821;28;20149;-59
2023/05/12 08:36:53;;;;;;;47.10;33.38;;;16.60;99.90;;;;;;4959965;28;20038;-59
2023/05/12 08:39:19;;;;;;;45.90;34.25;;;16.70;99.90;;;;;;4967446;28;20050;-59
2023/05/12 08:42:09;;;;;;;47.83;34.35;;;16.70;99.90;;;;;;4954101;28;20051;-60
2023/05/12 08:44:36;;;;;;;45.90;33.67;;;16.80;99.90;;;;;;4951306;28;20513;-59
2023/05/12 08:47:04;;;;;;;42.58;32.25;;;17.00;99.90;;;;;;4948088;28;21178;-59
2023/05/12 08:49:31;;;;;;;41.40;31.58;;;17.10;99.90;;;;;;4963800;28;20109;-59
2023/05/12 08:52:00;;;;;;;42.50;30.95;;;17.20;99.90;;;;;;4960027;28;20050;-60
2023/05/12 08:54:27;;;;;;;40.38;30.40;;;17.30;99.90;;;;;;4961703;28;20056;-59
2023/05/12 08:56:54;;;;;;;36.58;28.25;;;17.50;99.90;;;;;;4954409;28;20121;-60
2023/05/12 08:59:22;;;;;;;38.00;25.73;;;17.60;99.90;;;;;;4945187;28;20063;-59
2023/05/12 09:01:48;;;;;;;34.63;26.77;;;17.80;99.90;;;;;;4950534;28;20062;-59
2023/05/12 09:04:14;;;;;;;35.60;26.13;;;17.90;99.90;;;;;;4951806;28;20049;-60
2023/05/12 09:06:41;;;;;;;35.08;25.30;;;18.10;99.90;;;;;;4947849;28;20043;-59
2023/05/12 09:09:08;;;;;;;30.98;25.05;;;18.20;99.90;;;;;;4949150;28;20053;-59
2023/05/12 09:11:33;;;;;;;30.23;23.85;;;18.30;99.90;;;;;;4945016;28;20047;-60
2023/05/12 09:14:22;;;;;;;32.90;25.80;;;18.40;99.90;;;;;;4947085;28;20045;-59
2023/05/12 09:16:50;;;;;;;33.90;24.48;;;18.50;99.90;;;;;;4942468;28;20053;-59
2023/05/12 09:19:20;;;;;;;29.65;23.77;;;18.60;99.90;;;;;;4943631;28;20105;-59
2023/05/12 09:21:47;;;;;;;28.52;24.10;;;18.70;99.90;;;;;;4944747;28;20486;-59
2023/05/12 09:24:12;;;;;;;31.00;24.33;;;18.90;99.90;;;;;;4944358;28;20497;-59
2023/05/12 09:26:51;;;;;;;33.35;25.65;;;19.10;99.90;;;;;;4927044;28;20130;-60
2023/05/12 09:29:17;;;;;;;34.63;24.85;;;19.30;99.90;;;;;;4942454;28;20300;-60
2023/05/12 09:31:50;;;;;;;30.92;24.73;;;19.50;99.90;;;;;;4948153;28;20046;-60
2023/05/12 09:34:17;;;;;;;30.55;25.65;;;19.70;99.90;;;;;;4945037;28;20126;-59
2023/05/12 09:36:44;;;;;;;27.48;23.35;;;19.70;99.90;;;;;;4944798;28;20358;-59
2023/05/12 09:39:11;;;;;;;32.13;23.98;;;19.60;99.90;;;;;;4943471;28;20670;-60
2023/05/12 09:41:39;;;;;;;27.58;23.67;;;19.60;99.90;;;;;;4944105;28;20635;-59
2023/05/12 09:44:07;;;;;;;34.03;21.90;;;19.50;99.90;;;;;;4948228;28;20047;-59
2023/05/12 09:46:34;;;;;;;27.83;21.10;;;19.60;99.90;;;;;;4949665;28;20039;-59
2023/05/12 09:49:01;;;;;;;24.10;20.00;;;19.70;99.90;;;;;;4943299;28;21060;-59
2023/05/12 09:51:28;;;;;;;21.88;18.23;;;19.80;99.90;;;;;;4951838;28;20051;-60
2023/05/12 09:53:53;;;;;;;23.25;18.15;;;19.90;99.90;;;;;;4953933;28;20035;-59
2023/05/12 09:56:20;;;;;;;29.48;18.02;;;19.90;99.90;;;;;;4952411;28;20074;-60
2023/05/12 09:58:48;;;;;;;19.27;16.58;;;20.10;99.90;;;;;;4953135;28;20079;-58
2023/05/12 10:01:15;;;;;;;21.52;16.95;;;20.30;99.90;;;;;;4951149;28;20624;-60
2023/05/12 10:03:44;;;;;;;23.30;18.20;;;20.50;99.90;;;;;;4949545;28;20039;-60
2023/05/12 10:06:13;;;;;;;25.95;18.35;;;20.70;99.90;;;;;;4964794;28;20047;-60
2023/05/12 10:08:47;;;;;;;19.55;17.25;;;20.70;99.90;;;;;;4947056;28;20125;-61
2023/05/12 10:11:14;;;;;;;21.95;17.58;;;20.80;99.90;;;;;;4946321;28;20045;-60
2023/05/12 10:13:40;;;;;;;23.42;18.00;;;20.90;99.90;;;;;;4948804;28;20115;-60
2023/05/12 10:16:07;;;;;;;20.73;17.30;;;20.90;99.90;;;;;;4951946;28;21506;-60
2023/05/12 10:18:33;;;;;;;27.48;20.08;;;20.70;99.90;;;;;;4947453;28;20051;-60
2023/05/12 10:21:02;;;;;;;21.80;19.23;;;20.60;99.90;;;;;;4949848;28;20041;-60
2023/05/12 10:23:28;;;;;;;20.58;17.83;;;20.60;99.90;;;;;;4944137;28;20043;-60
2023/05/12 10:26:00;;;;;;;22.67;18.45;;;20.70;99.90;;;;;;4952971;28;20743;-60
2023/05/12 10:28:27;;;;;;;22.55;17.67;;;20.80;99.90;;;;;;4934875;28;20042;-60
2023/05/12 10:30:55;;;;;;;24.45;19.58;;;21.00;99.90;;;;;;4953096;28;20109;-60
2023/05/12 10:33:21;;;;;;;22.88;19.20;;;21.30;99.90;;;;;;4954493;28;20122;-60
2023/05/12 10:35:47;;;;;;;25.13;17.88;;;21.50;99.90;;;;;;4954115;28;20049;-59
2023/05/12 10:38:18;;;;;;;22.05;18.70;;;21.70;99.90;;;;;;4960598;28;20156;-59
2023/05/12 10:41:03;;;;;;;21.15;17.92;;;21.80;99.90;;;;;;4959222;28;20046;-59
2023/05/12 10:43:41;;;;;;;22.02;17.77;;;21.90;99.90;;;;;;4961965;28;20110;-59
2023/05/12 10:46:18;;;;;;;21.60;19.13;;;22.00;99.90;;;;;;4951560;28;20050;-59
2023/05/12 10:48:56;;;;;;;20.75;17.73;;;22.10;99.90;;;;;;4937843;28;21172;-59
2023/05/12 10:51:47;;;;;;;21.05;18.50;;;22.30;99.90;;;;;;4936283;28;20063;-60
2023/05/12 10:54:20;;;;;;;18.90;16.75;;;22.40;99.90;;;;;;4946284;28;20489;-59
2023/05/12 10:56:47;;;;;;;18.48;14.23;;;22.50;99.90;;;;;;4945828;28;20043;-60
2023/05/12 10:59:17;;;;;;;19.05;14.85;;;22.50;99.90;;;;;;4953451;28;20128;-60
2023/05/12 11:02:02;;;;;;;14.05;12.15;;;22.60;99.90;;;;;;4971119;28;20039;-60
2023/05/12 11:04:44;;;;;;;13.93;11.82;;;22.80;99.90;;;;;;4973949;28;20090;-60
2023/05/12 11:07:12;;;;;;;13.82;11.50;;;22.90;99.90;;;;;;4957072;28;20545;-60
2023/05/12 11:09:45;;;;;;;16.67;11.15;;;23.00;99.90;;;;;;4972177;28;20524;-59
2023/05/12 11:12:12;;;;;;;12.65;10.68;;;23.00;99.90;;;;;;4971003;28;20129;-60
2023/05/12 11:14:39;;;;;;;13.60;9.77;;;23.00;99.90;;;;;;4954958;28;20043;-60
2023/05/12 11:17:05;;;;;;;13.82;10.80;;;23.10;99.90;;;;;;4978308;28;20042;-59
2023/05/12 11:19:32;;;;;;;12.00;9.73;;;23.20;99.90;;;;;;4975107;28;20046;-60
2023/05/12 11:22:05;;;;;;;12.60;8.93;;;23.40;99.90;;;;;;4961426;28;20389;-59
2023/05/12 11:24:31;;;;;;;12.68;10.50;;;23.50;99.90;;;;;;4975178;28;20046;-59
2023/05/12 11:26:57;;;;;;;10.48;9.38;;;23.60;99.90;;;;;;4975137;28;20064;-60
2023/05/12 11:29:22;;;;;;;9.45;8.00;;;23.80;99.40;;;;;;4959384;28;20047;-59
2023/05/12 11:31:50;;;;;;;12.30;7.32;;;23.90;99.10;;;;;;4979349;28;20053;-60
2023/05/12 11:34:23;;;;;;;9.85;8.23;;;24.00;98.00;;;;;;4977031;28;21751;-59
2023/05/12 11:36:52;;;;;;;14.65;9.18;;;24.10;97.50;;;;;;4976458;28;20134;-59
2023/05/12 11:39:22;;;;;;;11.40;8.82;;;24.10;97.20;;;;;;4959007;28;20057;-60
2023/05/12 11:41:48;;;;;;;10.25;8.30;;;24.10;96.90;;;;;;4976292;28;20038;-60
2023/05/12 11:44:16;;;;;;;9.73;8.07;;;23.90;97.30;;;;;;4977719;28;20031;-60
2023/05/12 11:46:59;;;;;;;8.82;7.93;;;23.80;97.90;;;;;;4958449;28;20069;-59
2023/05/12 11:49:26;;;;;;;9.55;7.72;;;23.80;97.20;;;;;;4963726;28;20088;-60
2023/05/12 11:51:59;;;;;;;8.25;7.28;;;23.70;96.90;;;;;;4974829;28;20051;-59
2023/05/12 11:54:28;;;;;;;8.30;7.32;;;23.60;95.90;;;;;;4950533;28;20038;-60
2023/05/12 11:56:55;;;;;;;10.13;6.85;;;23.40;96.20;;;;;;4974523;28;20057;-60
2023/05/12 11:59:31;;;;;;;11.15;6.82;;;23.40;96.80;;;;;;4968120;28;20069;-60
2023/05/12 12:02:00;;;;;;;8.65;6.35;;;23.40;96.80;;;;;;4977024;28;20054;-59
2023/05/12 12:04:40;;;;;;;9.18;8.10;;;23.50;96.50;;;;;;4975895;28;20409;-60
2023/05/12 12:07:09;;;;;;;8.73;7.45;;;23.50;95.40;;;;;;4955169;28;20508;-60
2023/05/12 12:09:39;;;;;;;10.52;6.70;;;23.70;95.60;;;;;;4962836;28;20496;-60
2023/05/12 12:12:07;;;;;;;9.35;6.53;;;24.00;95.40;;;;;;4960703;28;20078;-60
2023/05/12 12:14:35;;;;;;;7.75;6.70;;;24.30;94.80;;;;;;4960490;28;20034;-60
2023/05/12 12:17:02;;;;;;;10.85;5.35;;;24.50;94.00;;;;;;4958460;28;20038;-60
2023/05/12 12:19:27;;;;;;;7.80;4.85;;;24.70;92.70;;;;;;4972102;28;20042;-61
2023/05/12 12:21:54;;;;;;;5.78;4.70;;;24.80;91.10;;;;;;4951619;28;20046;-60
2023/05/12 12:24:20;;;;;;;9.23;4.63;;;25.00;90.10;;;;;;4974516;28;20454;-61
2023/05/12 12:26:45;;;;;;;6.10;4.65;;;25.10;85.70;;;;;;4967754;28;20184;-60
2023/05/12 12:29:11;;;;;;;6.22;4.45;;;25.20;83.00;;;;;;4956037;28;20395;-61